CheckWX is a tool to help pilots better visualize weather data.  It is not intended as a substitute for an official pre-flight weather briefing.

05:16:52 UTC

KSPW METAR
Spencer Municipal Airport
Spencer, Iowa, USA
Current

24 mins ago

KSPW 230453Z AUTO 26010KT 10SM SCT040 OVC049 13/08 A2986 RMK AO2 SLP113 T01280083
Observed
May-23 @ 04:53 UTC
Wind
  • 260° at 10 KTS
Visibility
10 SM
Flight Rules
VFR
Cloud Levels
  • Scattered at 4,000' AGL
  • Overcast at 4,900' AGL
Temperature
13°C / 55°F
Dewpoint
C / 46°F
Humidity
72%
Altimeter
29.86" Hg
Pressure
1011.22 hPa
Previous

1 hour ago

KSPW 230353Z AUTO 26012KT 10SM OVC050 13/08 A2984 RMK AO2 SLP106 T01280083
Observed
May-23 @ 03:53 UTC
Wind
  • 260° at 12 KTS
Visibility
10 SM
Flight Rules
VFR
Cloud Levels
  • Overcast at 5,000' AGL
Temperature
13°C / 55°F
Dewpoint
C / 46°F
Humidity
72%
Altimeter
29.84" Hg
Pressure
1010.52 hPa
Previous

2 hours ago

KSPW 230253Z AUTO 25011KT 10SM FEW050 13/07 A2981 RMK AO2 SLP094 T01280072 51027
Observed
May-23 @ 02:53 UTC
Wind
  • 250° at 11 KTS
Visibility
10 SM
Flight Rules
VFR
Cloud Levels
  • Few at 5,000' AGL
Temperature
13°C / 55°F
Dewpoint
C / 45°F
Humidity
67%
Altimeter
29.81" Hg
Pressure
1009.52 hPa